sensor_id;sensor_type;location;lat;lon;timestamp;P1;durP1;ratioP1;P2;durP2;ratioP2
8104;SDS011;4095;48.942;9.104;2022-09-03T00:00:54;2.13;;;1.67;;
8104;SDS011;4095;48.942;9.104;2022-09-03T00:06:22;2.40;;;1.70;;
8104;SDS011;4095;48.942;9.104;2022-09-03T00:12:09;2.53;;;1.90;;
8104;SDS011;4095;48.942;9.104;2022-09-03T00:14:40;2.40;;;1.63;;
8104;SDS011;4095;48.942;9.104;2022-09-03T00:17:21;4.90;;;1.80;;
8104;SDS011;4095;48.942;9.104;2022-09-03T00:19:59;4.47;;;2.00;;
8104;SDS011;4095;48.942;9.104;2022-09-03T00:22:50;2.33;;;1.60;;
8104;SDS011;4095;48.942;9.104;2022-09-03T00:25:20;2.13;;;1.63;;
8104;SDS011;4095;48.942;9.104;2022-09-03T00:27:50;2.97;;;1.90;;
8104;SDS011;4095;48.942;9.104;2022-09-03T00:30:19;3.40;;;1.70;;
8104;SDS011;4095;48.942;9.104;2022-09-03T00:32:56;3.33;;;1.77;;
8104;SDS011;4095;48.942;9.104;2022-09-03T00:35:24;3.47;;;1.80;;
8104;SDS011;4095;48.942;9.104;2022-09-03T00:37:53;3.40;;;2.00;;
8104;SDS011;4095;48.942;9.104;2022-09-03T00:48:31;2.13;;;1.77;;
8104;SDS011;4095;48.942;9.104;2022-09-03T00:51:20;1.90;;;1.70;;
8104;SDS011;4095;48.942;9.104;2022-09-03T00:59:29;3.60;;;1.73;;
8104;SDS011;4095;48.942;9.104;2022-09-03T01:15:35;2.70;;;1.93;;
8104;SDS011;4095;48.942;9.104;2022-09-03T01:27:04;1.93;;;1.40;;
8104;SDS011;4095;48.942;9.104;2022-09-03T01:29:44;3.10;;;1.50;;
8104;SDS011;4095;48.942;9.104;2022-09-03T01:38:11;3.63;;;2.03;;
8104;SDS011;4095;48.942;9.104;2022-09-03T01:47:00;3.37;;;1.70;;
8104;SDS011;4095;48.942;9.104;2022-09-03T01:55:12;3.17;;;1.97;;
8104;SDS011;4095;48.942;9.104;2022-09-03T01:57:57;2.63;;;1.80;;
8104;SDS011;4095;48.942;9.104;2022-09-03T02:00:36;3.10;;;1.90;;
8104;SDS011;4095;48.942;9.104;2022-09-03T02:03:06;2.47;;;1.97;;
8104;SDS011;4095;48.942;9.104;2022-09-03T02:05:35;2.73;;;1.90;;
8104;SDS011;4095;48.942;9.104;2022-09-03T02:08:03;2.30;;;1.80;;
8104;SDS011;4095;48.942;9.104;2022-09-03T02:10:46;1.57;;;1.40;;
8104;SDS011;4095;48.942;9.104;2022-09-03T02:15:47;2.37;;;1.63;;
8104;SDS011;4095;48.942;9.104;2022-09-03T02:18:19;5.63;;;2.00;;
8104;SDS011;4095;48.942;9.104;2022-09-03T02:20:53;3.07;;;1.63;;
8104;SDS011;4095;48.942;9.104;2022-09-03T02:23:20;3.00;;;1.80;;
8104;SDS011;4095;48.942;9.104;2022-09-03T02:25:49;2.23;;;1.80;;
8104;SDS011;4095;48.942;9.104;2022-09-03T02:28:20;2.30;;;1.80;;
8104;SDS011;4095;48.942;9.104;2022-09-03T02:30:47;2.20;;;1.80;;
8104;SDS011;4095;48.942;9.104;2022-09-03T02:33:13;2.83;;;1.90;;
8104;SDS011;4095;48.942;9.104;2022-09-03T02:35:40;2.90;;;1.70;;
8104;SDS011;4095;48.942;9.104;2022-09-03T02:38:10;1.87;;;1.63;;
8104;SDS011;4095;48.942;9.104;2022-09-03T02:40:41;1.80;;;1.70;;
8104;SDS011;4095;48.942;9.104;2022-09-03T02:43:07;3.13;;;1.77;;
8104;SDS011;4095;48.942;9.104;2022-09-03T02:45:41;1.57;;;1.47;;
8104;SDS011;4095;48.942;9.104;2022-09-03T02:48:11;2.97;;;1.93;;
8104;SDS011;4095;48.942;9.104;2022-09-03T02:50:41;3.53;;;1.80;;
8104;SDS011;4095;48.942;9.104;2022-09-03T02:53:07;3.47;;;1.90;;
8104;SDS011;4095;48.942;9.104;2022-09-03T02:55:34;2.37;;;1.83;;
8104;SDS011;4095;48.942;9.104;2022-09-03T02:57:59;3.17;;;2.00;;
8104;SDS011;4095;48.942;9.104;2022-09-03T03:00:25;2.10;;;1.90;;
8104;SDS011;4095;48.942;9.104;2022-09-03T03:02:53;2.17;;;1.80;;
8104;SDS011;4095;48.942;9.104;2022-09-03T03:05:30;2.73;;;1.80;;
8104;SDS011;4095;48.942;9.104;2022-09-03T03:08:08;1.90;;;1.70;;
8104;SDS011;4095;48.942;9.104;2022-09-03T03:10:33;4.90;;;2.20;;
8104;SDS011;4095;48.942;9.104;2022-09-03T03:12:59;2.27;;;1.87;;
8104;SDS011;4095;48.942;9.104;2022-09-03T03:15:25;3.97;;;1.80;;
8104;SDS011;4095;48.942;9.104;2022-09-03T03:17:54;2.50;;;1.90;;
8104;SDS011;4095;48.942;9.104;2022-09-03T03:20:22;2.40;;;1.93;;
8104;SDS011;4095;48.942;9.104;2022-09-03T03:22:48;2.23;;;2.03;;
8104;SDS011;4095;48.942;9.104;2022-09-03T03:25:13;2.00;;;1.80;;
8104;SDS011;4095;48.942;9.104;2022-09-03T03:27:39;2.00;;;1.80;;
8104;SDS011;4095;48.942;9.104;2022-09-03T03:30:07;4.50;;;1.87;;
8104;SDS011;4095;48.942;9.104;2022-09-03T03:32:35;1.53;;;1.30;;
8104;SDS011;4095;48.942;9.104;2022-09-03T03:35:01;2.03;;;1.80;;
8104;SDS011;4095;48.942;9.104;2022-09-03T03:37:27;2.87;;;1.77;;
8104;SDS011;4095;48.942;9.104;2022-09-03T03:39:53;1.83;;;1.53;;
8104;SDS011;4095;48.942;9.104;2022-09-03T03:42:18;2.43;;;1.70;;
8104;SDS011;4095;48.942;9.104;2022-09-03T03:44:44;1.90;;;1.47;;
8104;SDS011;4095;48.942;9.104;2022-09-03T03:47:09;3.20;;;1.50;;
8104;SDS011;4095;48.942;9.104;2022-09-03T03:49:36;1.70;;;1.40;;
8104;SDS011;4095;48.942;9.104;2022-09-03T03:52:01;3.10;;;1.90;;
8104;SDS011;4095;48.942;9.104;2022-09-03T03:54:28;2.17;;;1.90;;
8104;SDS011;4095;48.942;9.104;2022-09-03T03:56:54;2.20;;;1.70;;
8104;SDS011;4095;48.942;9.104;2022-09-03T03:59:20;1.87;;;1.57;;
8104;SDS011;4095;48.942;9.104;2022-09-03T04:01:46;2.07;;;1.80;;
8104;SDS011;4095;48.942;9.104;2022-09-03T04:04:14;2.17;;;1.77;;
8104;SDS011;4095;48.942;9.104;2022-09-03T04:06:40;3.20;;;1.93;;
8104;SDS011;4095;48.942;9.104;2022-09-03T04:09:06;2.53;;;1.87;;
8104;SDS011;4095;48.942;9.104;2022-09-03T04:11:32;2.67;;;1.70;;
8104;SDS011;4095;48.942;9.104;2022-09-03T04:13:58;3.87;;;1.80;;
8104;SDS011;4095;48.942;9.104;2022-09-03T04:16:26;2.30;;;2.10;;
8104;SDS011;4095;48.942;9.104;2022-09-03T04:18:53;2.70;;;2.03;;
8104;SDS011;4095;48.942;9.104;2022-09-03T04:21:21;3.50;;;2.10;;
8104;SDS011;4095;48.942;9.104;2022-09-03T04:23:49;2.77;;;2.27;;
8104;SDS011;4095;48.942;9.104;2022-09-03T04:26:16;3.53;;;2.67;;
8104;SDS011;4095;48.942;9.104;2022-09-03T04:28:44;3.57;;;2.27;;
8104;SDS011;4095;48.942;9.104;2022-09-03T04:31:11;2.93;;;2.20;;
8104;SDS011;4095;48.942;9.104;2022-09-03T04:33:38;2.30;;;2.10;;
8104;SDS011;4095;48.942;9.104;2022-09-03T04:36:08;2.20;;;2.00;;
8104;SDS011;4095;48.942;9.104;2022-09-03T04:38:36;3.60;;;2.10;;
8104;SDS011;4095;48.942;9.104;2022-09-03T04:41:06;3.13;;;2.20;;
8104;SDS011;4095;48.942;9.104;2022-09-03T04:43:33;3.80;;;2.10;;
8104;SDS011;4095;48.942;9.104;2022-09-03T04:46:00;2.43;;;1.87;;
8104;SDS011;4095;48.942;9.104;2022-09-03T04:48:28;2.57;;;2.20;;
8104;SDS011;4095;48.942;9.104;2022-09-03T04:51:00;2.30;;;1.80;;
8104;SDS011;4095;48.942;9.104;2022-09-03T04:53:31;2.60;;;1.80;;
8104;SDS011;4095;48.942;9.104;2022-09-03T04:55:58;1.87;;;1.60;;
8104;SDS011;4095;48.942;9.104;2022-09-03T04:58:23;2.67;;;2.07;;
8104;SDS011;4095;48.942;9.104;2022-09-03T05:00:49;3.23;;;1.70;;
8104;SDS011;4095;48.942;9.104;2022-09-03T05:03:14;2.13;;;1.50;;
8104;SDS011;4095;48.942;9.104;2022-09-03T05:05:40;2.30;;;2.07;;
8104;SDS011;4095;48.942;9.104;2022-09-03T05:08:06;2.67;;;2.20;;
8104;SDS011;4095;48.942;9.104;2022-09-03T05:10:32;2.70;;;1.70;;
8104;SDS011;4095;48.942;9.104;2022-09-03T05:13:03;3.00;;;1.73;;
8104;SDS011;4095;48.942;9.104;2022-09-03T05:15:29;2.10;;;1.60;;
8104;SDS011;4095;48.942;9.104;2022-09-03T05:18:00;1.83;;;1.67;;
8104;SDS011;4095;48.942;9.104;2022-09-03T05:20:28;2.87;;;1.73;;
8104;SDS011;4095;48.942;9.104;2022-09-03T05:22:55;2.10;;;1.90;;
8104;SDS011;4095;48.942;9.104;2022-09-03T05:25:21;2.83;;;1.93;;
8104;SDS011;4095;48.942;9.104;2022-09-03T05:27:48;3.27;;;1.87;;
8104;SDS011;4095;48.942;9.104;2022-09-03T05:30:13;2.40;;;1.90;;
8104;SDS011;4095;48.942;9.104;2022-09-03T05:32:40;2.03;;;1.80;;
8104;SDS011;4095;48.942;9.104;2022-09-03T05:35:06;3.97;;;1.77;;
8104;SDS011;4095;48.942;9.104;2022-09-03T05:37:33;2.17;;;1.70;;
8104;SDS011;4095;48.942;9.104;2022-09-03T05:39:58;4.33;;;1.77;;
8104;SDS011;4095;48.942;9.104;2022-09-03T05:42:24;6.37;;;4.17;;
8104;SDS011;4095;48.942;9.104;2022-09-03T05:44:52;5.83;;;4.40;;
8104;SDS011;4095;48.942;9.104;2022-09-03T05:47:18;5.20;;;3.00;;
8104;SDS011;4095;48.942;9.104;2022-09-03T05:49:44;1.87;;;1.60;;
8104;SDS011;4095;48.942;9.104;2022-09-03T05:52:09;3.43;;;1.83;;
8104;SDS011;4095;48.942;9.104;2022-09-03T05:54:35;3.23;;;1.70;;
8104;SDS011;4095;48.942;9.104;2022-09-03T05:57:01;3.60;;;1.73;;
8104;SDS011;4095;48.942;9.104;2022-09-03T05:59:26;2.10;;;1.60;;
8104;SDS011;4095;48.942;9.104;2022-09-03T06:01:52;3.90;;;1.80;;
8104;SDS011;4095;48.942;9.104;2022-09-03T06:04:18;4.13;;;1.73;;
8104;SDS011;4095;48.942;9.104;2022-09-03T06:06:44;3.77;;;1.60;;
8104;SDS011;4095;48.942;9.104;2022-09-03T06:09:15;2.33;;;1.77;;
8104;SDS011;4095;48.942;9.104;2022-09-03T06:11:43;1.80;;;1.50;;
8104;SDS011;4095;48.942;9.104;2022-09-03T06:14:10;1.60;;;1.40;;
8104;SDS011;4095;48.942;9.104;2022-09-03T06:16:38;2.73;;;1.87;;
8104;SDS011;4095;48.942;9.104;2022-09-03T06:19:08;2.10;;;1.50;;
8104;SDS011;4095;48.942;9.104;2022-09-03T06:21:38;1.87;;;1.67;;
8104;SDS011;4095;48.942;9.104;2022-09-03T06:24:07;2.10;;;1.80;;
8104;SDS011;4095;48.942;9.104;2022-09-03T06:26:38;2.20;;;1.60;;
8104;SDS011;4095;48.942;9.104;2022-09-03T06:29:04;2.53;;;1.90;;
8104;SDS011;4095;48.942;9.104;2022-09-03T06:31:30;2.23;;;1.60;;
8104;SDS011;4095;48.942;9.104;2022-09-03T06:33:56;2.53;;;1.40;;
8104;SDS011;4095;48.942;9.104;2022-09-03T06:36:23;1.70;;;1.60;;
8104;SDS011;4095;48.942;9.104;2022-09-03T06:38:51;2.70;;;1.60;;
8104;SDS011;4095;48.942;9.104;2022-09-03T06:41:19;3.43;;;1.80;;
8104;SDS011;4095;48.942;9.104;2022-09-03T06:43:53;3.13;;;1.70;;
8104;SDS011;4095;48.942;9.104;2022-09-03T06:46:23;2.07;;;1.60;;
8104;SDS011;4095;48.942;9.104;2022-09-03T06:48:49;2.40;;;1.67;;
8104;SDS011;4095;48.942;9.104;2022-09-03T06:51:19;3.43;;;2.10;;
8104;SDS011;4095;48.942;9.104;2022-09-03T06:53:48;1.90;;;1.70;;
8104;SDS011;4095;48.942;9.104;2022-09-03T06:56:16;3.20;;;1.60;;
8104;SDS011;4095;48.942;9.104;2022-09-03T06:58:47;2.37;;;1.67;;
8104;SDS011;4095;48.942;9.104;2022-09-03T07:01:14;1.87;;;1.70;;
8104;SDS011;4095;48.942;9.104;2022-09-03T07:03:42;3.30;;;1.70;;
8104;SDS011;4095;48.942;9.104;2022-09-03T07:06:11;1.87;;;1.60;;
8104;SDS011;4095;48.942;9.104;2022-09-03T07:08:38;2.00;;;1.70;;
8104;SDS011;4095;48.942;9.104;2022-09-03T07:11:05;3.73;;;2.27;;
8104;SDS011;4095;48.942;9.104;2022-09-03T07:13:35;5.07;;;2.50;;
8104;SDS011;4095;48.942;9.104;2022-09-03T07:16:07;2.10;;;1.80;;
8104;SDS011;4095;48.942;9.104;2022-09-03T07:18:34;3.30;;;1.80;;
8104;SDS011;4095;48.942;9.104;2022-09-03T07:21:02;2.67;;;2.00;;
8104;SDS011;4095;48.942;9.104;2022-09-03T07:23:30;4.37;;;2.00;;
8104;SDS011;4095;48.942;9.104;2022-09-03T07:25:56;2.43;;;2.17;;
8104;SDS011;4095;48.942;9.104;2022-09-03T07:28:24;1.87;;;1.60;;
8104;SDS011;4095;48.942;9.104;2022-09-03T07:30:50;2.10;;;1.87;;
8104;SDS011;4095;48.942;9.104;2022-09-03T07:33:17;2.50;;;1.97;;
8104;SDS011;4095;48.942;9.104;2022-09-03T07:35:43;3.40;;;1.93;;
8104;SDS011;4095;48.942;9.104;2022-09-03T07:38:09;3.83;;;1.87;;
8104;SDS011;4095;48.942;9.104;2022-09-03T07:40:35;4.70;;;2.10;;
8104;SDS011;4095;48.942;9.104;2022-09-03T07:43:03;2.63;;;1.77;;
8104;SDS011;4095;48.942;9.104;2022-09-03T07:45:29;2.50;;;1.70;;
8104;SDS011;4095;48.942;9.104;2022-09-03T07:47:57;3.10;;;2.17;;
8104;SDS011;4095;48.942;9.104;2022-09-03T07:50:23;2.93;;;1.77;;
8104;SDS011;4095;48.942;9.104;2022-09-03T07:52:48;3.00;;;1.90;;
8104;SDS011;4095;48.942;9.104;2022-09-03T07:55:19;3.90;;;2.20;;
8104;SDS011;4095;48.942;9.104;2022-09-03T07:57:45;2.03;;;1.73;;
8104;SDS011;4095;48.942;9.104;2022-09-03T08:00:10;2.40;;;2.03;;
8104;SDS011;4095;48.942;9.104;2022-09-03T08:02:37;2.57;;;2.27;;
8104;SDS011;4095;48.942;9.104;2022-09-03T08:05:02;3.53;;;1.90;;
8104;SDS011;4095;48.942;9.104;2022-09-03T08:07:29;2.47;;;1.90;;
8104;SDS011;4095;48.942;9.104;2022-09-03T08:09:55;2.27;;;1.73;;
8104;SDS011;4095;48.942;9.104;2022-09-03T08:12:21;2.27;;;2.00;;
8104;SDS011;4095;48.942;9.104;2022-09-03T08:14:47;4.90;;;2.00;;
8104;SDS011;4095;48.942;9.104;2022-09-03T08:17:13;3.47;;;2.23;;
8104;SDS011;4095;48.942;9.104;2022-09-03T08:19:39;3.27;;;2.30;;
8104;SDS011;4095;48.942;9.104;2022-09-03T08:22:06;2.10;;;1.90;;
8104;SDS011;4095;48.942;9.104;2022-09-03T08:24:32;5.77;;;2.40;;
8104;SDS011;4095;48.942;9.104;2022-09-03T08:26:59;3.17;;;2.00;;
8104;SDS011;4095;48.942;9.104;2022-09-03T08:29:25;3.67;;;2.00;;
8104;SDS011;4095;48.942;9.104;2022-09-03T08:31:51;3.40;;;1.87;;
8104;SDS011;4095;48.942;9.104;2022-09-03T08:34:17;2.47;;;2.00;;
8104;SDS011;4095;48.942;9.104;2022-09-03T08:36:43;2.27;;;1.90;;
8104;SDS011;4095;48.942;9.104;2022-09-03T08:39:11;4.47;;;2.13;;
8104;SDS011;4095;48.942;9.104;2022-09-03T08:44:27;4.07;;;2.33;;
8104;SDS011;4095;48.942;9.104;2022-09-03T08:47:08;4.50;;;2.20;;
8104;SDS011;4095;48.942;9.104;2022-09-03T08:52:57;3.33;;;2.60;;
8104;SDS011;4095;48.942;9.104;2022-09-03T08:57:50;3.53;;;2.07;;
8104;SDS011;4095;48.942;9.104;2022-09-03T09:00:20;3.60;;;2.30;;
8104;SDS011;4095;48.942;9.104;2022-09-03T09:05:11;3.57;;;2.37;;
8104;SDS011;4095;48.942;9.104;2022-09-03T09:08:08;3.63;;;2.50;;
8104;SDS011;4095;48.942;9.104;2022-09-03T09:10:48;4.00;;;2.20;;
8104;SDS011;4095;48.942;9.104;2022-09-03T09:13:50;3.30;;;2.20;;
8104;SDS011;4095;48.942;9.104;2022-09-03T09:21:50;2.43;;;2.20;;
8104;SDS011;4095;48.942;9.104;2022-09-03T09:24:22;2.83;;;2.00;;
8104;SDS011;4095;48.942;9.104;2022-09-03T09:27:08;3.30;;;2.30;;
8104;SDS011;4095;48.942;9.104;2022-09-03T09:29:41;3.77;;;2.00;;
8104;SDS011;4095;48.942;9.104;2022-09-03T09:32:10;4.70;;;2.10;;
8104;SDS011;4095;48.942;9.104;2022-09-03T09:34:38;3.93;;;1.90;;
8104;SDS011;4095;48.942;9.104;2022-09-03T09:37:12;3.43;;;2.23;;
8104;SDS011;4095;48.942;9.104;2022-09-03T09:39:39;3.33;;;2.10;;
8104;SDS011;4095;48.942;9.104;2022-09-03T09:42:20;3.17;;;2.33;;
8104;SDS011;4095;48.942;9.104;2022-09-03T09:44:47;3.25;;;2.33;;
8104;SDS011;4095;48.942;9.104;2022-09-03T09:47:33;2.63;;;2.23;;
8104;SDS011;4095;48.942;9.104;2022-09-03T09:50:03;3.43;;;2.10;;
8104;SDS011;4095;48.942;9.104;2022-09-03T09:52:41;3.60;;;2.27;;
8104;SDS011;4095;48.942;9.104;2022-09-03T09:55:14;3.10;;;2.45;;
8104;SDS011;4095;48.942;9.104;2022-09-03T09:57:43;2.92;;;2.10;;
8104;SDS011;4095;48.942;9.104;2022-09-03T10:00:13;2.72;;;2.25;;
8104;SDS011;4095;48.942;9.104;2022-09-03T10:03:00;2.67;;;2.42;;
8104;SDS011;4095;48.942;9.104;2022-09-03T10:05:26;3.20;;;2.03;;
8104;SDS011;4095;48.942;9.104;2022-09-03T10:07:59;3.53;;;2.17;;
8104;SDS011;4095;48.942;9.104;2022-09-03T10:10:28;3.47;;;2.40;;
8104;SDS011;4095;48.942;9.104;2022-09-03T10:13:09;2.88;;;2.20;;
8104;SDS011;4095;48.942;9.104;2022-09-03T10:15:45;3.17;;;2.05;;
8104;SDS011;4095;48.942;9.104;2022-09-03T10:21:14;4.55;;;2.35;;
8104;SDS011;4095;48.942;9.104;2022-09-03T10:26:47;4.15;;;2.40;;
8104;SDS011;4095;48.942;9.104;2022-09-03T10:29:16;5.78;;;2.40;;
8104;SDS011;4095;48.942;9.104;2022-09-03T10:34:42;2.35;;;2.00;;
8104;SDS011;4095;48.942;9.104;2022-09-03T10:37:33;4.78;;;2.25;;
8104;SDS011;4095;48.942;9.104;2022-09-03T10:40:17;3.47;;;2.28;;
8104;SDS011;4095;48.942;9.104;2022-09-03T10:45:53;3.35;;;2.40;;
8104;SDS011;4095;48.942;9.104;2022-09-03T10:48:34;3.50;;;2.10;;
8104;SDS011;4095;48.942;9.104;2022-09-03T10:54:02;4.72;;;2.15;;
8104;SDS011;4095;48.942;9.104;2022-09-03T11:10:20;4.20;;;2.20;;
8104;SDS011;4095;48.942;9.104;2022-09-03T11:20:29;3.72;;;2.22;;
8104;SDS011;4095;48.942;9.104;2022-09-03T11:22:58;3.72;;;2.10;;
8104;SDS011;4095;48.942;9.104;2022-09-03T11:25:31;3.15;;;1.90;;
8104;SDS011;4095;48.942;9.104;2022-09-03T11:33:26;2.10;;;1.90;;
8104;SDS011;4095;48.942;9.104;2022-09-03T11:35:54;3.17;;;2.30;;
8104;SDS011;4095;48.942;9.104;2022-09-03T11:38:22;4.80;;;2.20;;
8104;SDS011;4095;48.942;9.104;2022-09-03T11:41:03;4.07;;;2.03;;
8104;SDS011;4095;48.942;9.104;2022-09-03T11:43:40;2.42;;;2.00;;
8104;SDS011;4095;48.942;9.104;2022-09-03T11:51:14;3.67;;;2.28;;
8104;SDS011;4095;48.942;9.104;2022-09-03T11:56:31;2.78;;;2.47;;
8104;SDS011;4095;48.942;9.104;2022-09-03T11:59:03;3.35;;;2.20;;
8104;SDS011;4095;48.942;9.104;2022-09-03T12:01:28;3.05;;;2.17;;
8104;SDS011;4095;48.942;9.104;2022-09-03T12:04:00;4.75;;;2.25;;
8104;SDS011;4095;48.942;9.104;2022-09-03T12:06:44;2.65;;;2.00;;
8104;SDS011;4095;48.942;9.104;2022-09-03T12:18:06;3.20;;;2.90;;
8104;SDS011;4095;48.942;9.104;2022-09-03T12:21:08;3.03;;;2.38;;
8104;SDS011;4095;48.942;9.104;2022-09-03T12:26:14;3.25;;;2.13;;
8104;SDS011;4095;48.942;9.104;2022-09-03T12:28:51;3.10;;;2.60;;
8104;SDS011;4095;48.942;9.104;2022-09-03T12:33:51;3.75;;;2.60;;
8104;SDS011;4095;48.942;9.104;2022-09-03T12:36:34;2.30;;;2.10;;
8104;SDS011;4095;48.942;9.104;2022-09-03T12:44:29;2.60;;;2.33;;
8104;SDS011;4095;48.942;9.104;2022-09-03T12:47:06;2.45;;;2.25;;
8104;SDS011;4095;48.942;9.104;2022-09-03T12:49:35;3.13;;;2.30;;
8104;SDS011;4095;48.942;9.104;2022-09-03T12:55:04;2.85;;;2.60;;
8104;SDS011;4095;48.942;9.104;2022-09-03T12:58:36;4.65;;;2.90;;
8104;SDS011;4095;48.942;9.104;2022-09-03T13:00:37;6.05;;;2.28;;
8104;SDS011;4095;48.942;9.104;2022-09-03T13:03:28;3.47;;;1.67;;
8104;SDS011;4095;48.942;9.104;2022-09-03T13:06:09;2.08;;;1.30;;
8104;SDS011;4095;48.942;9.104;2022-09-03T13:08:48;3.00;;;1.58;;
8104;SDS011;4095;48.942;9.104;2022-09-03T13:11:17;2.33;;;1.58;;
8104;SDS011;4095;48.942;9.104;2022-09-03T13:13:52;1.80;;;1.50;;
8104;SDS011;4095;48.942;9.104;2022-09-03T13:27:09;1.73;;;1.23;;
8104;SDS011;4095;48.942;9.104;2022-09-03T13:30:06;1.23;;;1.10;;
8104;SDS011;4095;48.942;9.104;2022-09-03T13:38:37;2.20;;;1.50;;
8104;SDS011;4095;48.942;9.104;2022-09-03T13:41:11;1.43;;;1.30;;
8104;SDS011;4095;48.942;9.104;2022-09-03T13:46:39;1.93;;;1.40;;
8104;SDS011;4095;48.942;9.104;2022-09-03T13:49:16;3.00;;;1.40;;
8104;SDS011;4095;48.942;9.104;2022-09-03T13:55:00;2.03;;;1.47;;
8104;SDS011;4095;48.942;9.104;2022-09-03T14:00:13;1.57;;;1.43;;
8104;SDS011;4095;48.942;9.104;2022-09-03T14:03:16;1.23;;;1.10;;
8104;SDS011;4095;48.942;9.104;2022-09-03T14:06:04;1.80;;;1.50;;
8104;SDS011;4095;48.942;9.104;2022-09-03T14:11:26;2.97;;;1.40;;
8104;SDS011;4095;48.942;9.104;2022-09-03T14:16:45;1.30;;;1.20;;
8104;SDS011;4095;48.942;9.104;2022-09-03T14:20:05;1.50;;;1.40;;
8104;SDS011;4095;48.942;9.104;2022-09-03T14:22:10;1.73;;;1.47;;
8104;SDS011;4095;48.942;9.104;2022-09-03T14:27:28;1.70;;;1.50;;
8104;SDS011;4095;48.942;9.104;2022-09-03T14:29:59;2.47;;;1.57;;
8104;SDS011;4095;48.942;9.104;2022-09-03T14:44:08;2.60;;;1.80;;
8104;SDS011;4095;48.942;9.104;2022-09-03T14:49:43;2.93;;;1.90;;
8104;SDS011;4095;48.942;9.104;2022-09-03T14:52:28;2.07;;;1.80;;
8104;SDS011;4095;48.942;9.104;2022-09-03T14:58:22;2.50;;;2.20;;
8104;SDS011;4095;48.942;9.104;2022-09-03T15:01:09;3.47;;;2.07;;
8104;SDS011;4095;48.942;9.104;2022-09-03T15:06:46;2.40;;;2.20;;
8104;SDS011;4095;48.942;9.104;2022-09-03T15:12:00;3.67;;;2.40;;
8104;SDS011;4095;48.942;9.104;2022-09-03T15:20:10;3.33;;;2.40;;
8104;SDS011;4095;48.942;9.104;2022-09-03T15:30:40;3.57;;;2.37;;
8104;SDS011;4095;48.942;9.104;2022-09-03T15:33:38;2.83;;;2.33;;
8104;SDS011;4095;48.942;9.104;2022-09-03T15:36:22;2.40;;;2.20;;
8104;SDS011;4095;48.942;9.104;2022-09-03T15:38:54;3.80;;;2.40;;
8104;SDS011;4095;48.942;9.104;2022-09-03T15:44:34;2.53;;;2.20;;
8104;SDS011;4095;48.942;9.104;2022-09-03T15:47:08;3.33;;;2.40;;
8104;SDS011;4095;48.942;9.104;2022-09-03T15:58:22;4.80;;;2.30;;
8104;SDS011;4095;48.942;9.104;2022-09-03T16:00:40;2.53;;;2.33;;
8104;SDS011;4095;48.942;9.104;2022-09-03T16:03:14;3.43;;;2.20;;
8104;SDS011;4095;48.942;9.104;2022-09-03T16:06:02;2.70;;;2.27;;
8104;SDS011;4095;48.942;9.104;2022-09-03T16:14:00;3.40;;;2.50;;
8104;SDS011;4095;48.942;9.104;2022-09-03T16:22:27;2.77;;;2.43;;
8104;SDS011;4095;48.942;9.104;2022-09-03T16:27:23;5.03;;;4.50;;
8104;SDS011;4095;48.942;9.104;2022-09-03T16:40:39;2.67;;;2.43;;
8104;SDS011;4095;48.942;9.104;2022-09-03T16:51:53;2.60;;;2.40;;
8104;SDS011;4095;48.942;9.104;2022-09-03T17:18:29;3.50;;;2.60;;
8104;SDS011;4095;48.942;9.104;2022-09-03T17:23:54;3.40;;;2.67;;
8104;SDS011;4095;48.942;9.104;2022-09-03T17:29:16;3.07;;;2.70;;
8104;SDS011;4095;48.942;9.104;2022-09-03T17:32:11;2.77;;;2.47;;
8104;SDS011;4095;48.942;9.104;2022-09-03T17:40:42;3.37;;;2.60;;
8104;SDS011;4095;48.942;9.104;2022-09-03T17:54:07;3.73;;;2.90;;
8104;SDS011;4095;48.942;9.104;2022-09-03T17:59:39;3.63;;;3.17;;
8104;SDS011;4095;48.942;9.104;2022-09-03T18:02:36;4.10;;;2.80;;
8104;SDS011;4095;48.942;9.104;2022-09-03T18:05:20;4.80;;;2.80;;
8104;SDS011;4095;48.942;9.104;2022-09-03T18:10:32;3.63;;;3.10;;
8104;SDS011;4095;48.942;9.104;2022-09-03T18:13:15;6.67;;;3.40;;
8104;SDS011;4095;48.942;9.104;2022-09-03T18:18:32;4.73;;;3.40;;
8104;SDS011;4095;48.942;9.104;2022-09-03T18:21:02;3.50;;;3.20;;
8104;SDS011;4095;48.942;9.104;2022-09-03T18:24:01;3.87;;;3.50;;
8104;SDS011;4095;48.942;9.104;2022-09-03T18:27:00;10.73;;;9.50;;
8104;SDS011;4095;48.942;9.104;2022-09-03T18:30:03;7.20;;;5.63;;
8104;SDS011;4095;48.942;9.104;2022-09-03T18:32:50;4.80;;;4.40;;
8104;SDS011;4095;48.942;9.104;2022-09-03T18:35:34;4.43;;;4.03;;
8104;SDS011;4095;48.942;9.104;2022-09-03T18:38:22;4.50;;;3.50;;
8104;SDS011;4095;48.942;9.104;2022-09-03T18:50:12;4.33;;;3.90;;
8104;SDS011;4095;48.942;9.104;2022-09-03T18:56:30;4.30;;;3.90;;
8104;SDS011;4095;48.942;9.104;2022-09-03T19:02:14;5.17;;;4.27;;
8104;SDS011;4095;48.942;9.104;2022-09-03T19:08:14;4.67;;;4.00;;
8104;SDS011;4095;48.942;9.104;2022-09-03T19:11:16;4.60;;;4.20;;
8104;SDS011;4095;48.942;9.104;2022-09-03T19:20:29;5.63;;;4.67;;
8104;SDS011;4095;48.942;9.104;2022-09-03T19:23:15;6.60;;;5.33;;
8104;SDS011;4095;48.942;9.104;2022-09-03T19:26:04;7.10;;;5.27;;
8104;SDS011;4095;48.942;9.104;2022-09-03T19:29:00;5.97;;;4.83;;
8104;SDS011;4095;48.942;9.104;2022-09-03T19:31:54;6.00;;;5.43;;
8104;SDS011;4095;48.942;9.104;2022-09-03T19:37:59;5.60;;;5.10;;
8104;SDS011;4095;48.942;9.104;2022-09-03T19:44:12;5.17;;;4.70;;
8104;SDS011;4095;48.942;9.104;2022-09-03T19:47:06;6.67;;;4.70;;
8104;SDS011;4095;48.942;9.104;2022-09-03T19:50:07;5.53;;;4.93;;
8104;SDS011;4095;48.942;9.104;2022-09-03T19:53:11;5.60;;;4.83;;
8104;SDS011;4095;48.942;9.104;2022-09-03T19:55:59;8.43;;;5.17;;
8104;SDS011;4095;48.942;9.104;2022-09-03T19:58:56;5.00;;;4.50;;
8104;SDS011;4095;48.942;9.104;2022-09-03T20:01:45;4.87;;;4.37;;
8104;SDS011;4095;48.942;9.104;2022-09-03T20:04:33;5.30;;;4.80;;
8104;SDS011;4095;48.942;9.104;2022-09-03T20:07:23;5.60;;;4.93;;
8104;SDS011;4095;48.942;9.104;2022-09-03T20:10:11;5.30;;;4.80;;
8104;SDS011;4095;48.942;9.104;2022-09-03T20:12:52;5.30;;;4.80;;
8104;SDS011;4095;48.942;9.104;2022-09-03T20:15:31;5.90;;;5.40;;
8104;SDS011;4095;48.942;9.104;2022-09-03T20:20:45;5.50;;;5.00;;
8104;SDS011;4095;48.942;9.104;2022-09-03T20:23:36;5.77;;;4.90;;
8104;SDS011;4095;48.942;9.104;2022-09-03T20:31:27;5.90;;;4.83;;
8104;SDS011;4095;48.942;9.104;2022-09-03T20:34:19;5.43;;;4.67;;
8104;SDS011;4095;48.942;9.104;2022-09-03T20:37:14;4.77;;;4.37;;
8104;SDS011;4095;48.942;9.104;2022-09-03T20:42:47;5.27;;;4.60;;
8104;SDS011;4095;48.942;9.104;2022-09-03T20:48:30;4.83;;;4.43;;
8104;SDS011;4095;48.942;9.104;2022-09-03T20:51:03;6.47;;;4.67;;
8104;SDS011;4095;48.942;9.104;2022-09-03T20:56:16;4.97;;;4.47;;
8104;SDS011;4095;48.942;9.104;2022-09-03T20:58:49;4.77;;;4.37;;
8104;SDS011;4095;48.942;9.104;2022-09-03T21:15:09;5.57;;;4.63;;
8104;SDS011;4095;48.942;9.104;2022-09-03T21:18:00;5.37;;;4.43;;
8104;SDS011;4095;48.942;9.104;2022-09-03T21:20:32;5.07;;;4.57;;
8104;SDS011;4095;48.942;9.104;2022-09-03T21:26:14;5.60;;;4.93;;
8104;SDS011;4095;48.942;9.104;2022-09-03T21:28:49;5.07;;;4.57;;
8104;SDS011;4095;48.942;9.104;2022-09-03T21:31:31;5.13;;;4.63;;
8104;SDS011;4095;48.942;9.104;2022-09-03T21:34:07;5.00;;;4.50;;
8104;SDS011;4095;48.942;9.104;2022-09-03T21:36:36;5.00;;;4.60;;
8104;SDS011;4095;48.942;9.104;2022-09-03T21:39:14;6.07;;;4.83;;
8104;SDS011;4095;48.942;9.104;2022-09-03T21:47:10;5.23;;;4.47;;
8104;SDS011;4095;48.942;9.104;2022-09-03T21:49:39;5.40;;;4.80;;
8104;SDS011;4095;48.942;9.104;2022-09-03T21:52:47;4.97;;;4.57;;
8104;SDS011;4095;48.942;9.104;2022-09-03T21:57:58;5.10;;;4.60;;
8104;SDS011;4095;48.942;9.104;2022-09-03T22:00:37;5.13;;;4.60;;
8104;SDS011;4095;48.942;9.104;2022-09-03T22:03:03;5.33;;;4.70;;
8104;SDS011;4095;48.942;9.104;2022-09-03T22:05:38;7.27;;;5.10;;
8104;SDS011;4095;48.942;9.104;2022-09-03T22:09:00;4.83;;;4.43;;
8104;SDS011;4095;48.942;9.104;2022-09-03T22:11:22;6.07;;;4.73;;
8104;SDS011;4095;48.942;9.104;2022-09-03T22:19:10;6.00;;;5.40;;
8104;SDS011;4095;48.942;9.104;2022-09-03T22:29:43;6.00;;;5.50;;
8104;SDS011;4095;48.942;9.104;2022-09-03T22:32:37;6.47;;;5.70;;
8104;SDS011;4095;48.942;9.104;2022-09-03T22:51:19;6.23;;;5.73;;
8104;SDS011;4095;48.942;9.104;2022-09-03T22:56:32;5.70;;;5.20;;
8104;SDS011;4095;48.942;9.104;2022-09-03T23:07:23;5.80;;;5.07;;
8104;SDS011;4095;48.942;9.104;2022-09-03T23:10:08;5.47;;;4.97;;